createdAt,value
2018-04-08T00:01:15.175Z,64.20
2018-04-08T00:03:42.685Z,64.70
2018-04-08T00:06:10.182Z,64.70
2018-04-08T00:08:37.685Z,64.60
2018-04-08T00:11:06.882Z,64.50
2018-04-08T00:13:35.157Z,64.90
2018-04-08T00:16:03.746Z,64.80
2018-04-08T00:18:32.039Z,65.30
2018-04-08T00:21:00.292Z,65.50
2018-04-08T00:23:28.552Z,65.40
2018-04-08T00:25:56.047Z,65.50
2018-04-08T00:28:23.545Z,65.70
2018-04-08T00:30:51.038Z,65.50
2018-04-08T00:33:18.626Z,65.50
2018-04-08T00:35:46.741Z,65.50
2018-04-08T00:38:14.237Z,65.50
2018-04-08T00:40:41.799Z,65.50
2018-04-08T00:43:09.302Z,65.60
2018-04-08T00:45:39.245Z,65.60
2018-04-08T00:48:07.695Z,66.10
2018-04-08T00:50:35.176Z,66.50
2018-04-08T00:53:03.469Z,67.20
2018-04-08T00:55:31.767Z,67.20
2018-04-08T00:57:59.317Z,67.20
2018-04-08T01:00:27.611Z,67.70
2018-04-08T01:02:55.110Z,67.70
2018-04-08T01:05:22.621Z,68.20
2018-04-08T01:07:50.993Z,68.40
2018-04-08T01:10:18.510Z,68.40
2018-04-08T01:12:46.006Z,68.60
2018-04-08T01:15:13.568Z,68.60
2018-04-08T01:17:41.071Z,68.70
2018-04-08T01:20:08.560Z,69.00
2018-04-08T01:22:36.044Z,69.40
2018-04-08T01:25:03.541Z,69.30
2018-04-08T01:27:31.810Z,69.90
2018-04-08T01:30:00.085Z,70.20
2018-04-08T01:32:27.556Z,70.20
2018-04-08T01:34:55.845Z,70.30
2018-04-08T01:37:25.567Z,71.30
2018-04-08T01:39:53.075Z,70.70
2018-04-08T01:42:20.574Z,70.80
2018-04-08T01:44:48.837Z,71.70
2018-04-08T01:47:16.350Z,71.00
2018-04-08T01:49:43.841Z,71.00
2018-04-08T01:52:11.545Z,70.90
2018-04-08T01:54:39.807Z,70.50
2018-04-08T01:57:08.812Z,70.60
2018-04-08T01:59:36.373Z,70.40
2018-04-08T02:02:05.159Z,70.30
2018-04-08T02:04:34.807Z,70.10
2018-04-08T02:07:03.058Z,69.80
2018-04-08T02:09:30.562Z,69.80
2018-04-08T02:11:58.819Z,69.60
2018-04-08T02:14:27.062Z,69.10
2018-04-08T02:16:54.573Z,69.10
2018-04-08T02:19:22.832Z,68.70
2018-04-08T02:21:50.352Z,68.70
2018-04-08T02:24:17.863Z,68.80
2018-04-08T02:26:45.351Z,68.80
2018-04-08T02:29:13.602Z,69.00
2018-04-08T02:31:41.149Z,69.00
2018-04-08T02:34:08.717Z,69.40
2018-04-08T02:36:36.205Z,69.00
2018-04-08T02:39:04.478Z,68.50
2018-04-08T02:41:32.751Z,68.20
2018-04-08T02:44:00.851Z,68.20
2018-04-08T02:46:28.394Z,68.20
2018-04-08T02:48:56.642Z,67.60
2018-04-08T02:51:24.133Z,67.70
2018-04-08T02:53:52.421Z,67.10
2018-04-08T02:56:19.913Z,67.10
2018-04-08T02:58:47.438Z,67.80
2018-04-08T03:01:14.960Z,66.80
2018-04-08T03:03:42.511Z,66.70
2018-04-08T03:06:10.053Z,66.50
2018-04-08T03:08:38.389Z,66.80
2018-04-08T03:11:05.881Z,66.70
2018-04-08T03:13:34.193Z,66.70
2018-04-08T03:16:02.462Z,66.90
2018-04-08T03:18:30.737Z,66.80
2018-04-08T03:20:59.609Z,66.70
2018-04-08T03:23:27.096Z,66.70
2018-04-08T03:25:56.164Z,66.70
2018-04-08T03:28:23.647Z,66.60
2018-04-08T03:30:51.151Z,66.70
2018-04-08T03:33:18.646Z,67.00
2018-04-08T03:35:46.158Z,66.80
2018-04-08T03:38:14.423Z,66.70
2018-04-08T03:40:42.697Z,66.90
2018-04-08T03:43:10.225Z,66.90
2018-04-08T03:45:37.722Z,67.00
2018-04-08T03:48:05.255Z,67.10
2018-04-08T03:50:32.751Z,67.80
2018-04-08T03:53:00.278Z,67.40
2018-04-08T03:55:27.793Z,67.60
2018-04-08T03:57:56.112Z,68.10
2018-04-08T04:00:24.335Z,68.00
2018-04-08T04:02:53.361Z,67.90
2018-04-08T04:05:21.614Z,68.00
2018-04-08T04:07:49.123Z,67.90
2018-04-08T04:10:16.739Z,67.80
2018-04-08T04:12:44.287Z,68.00
2018-04-08T04:15:11.798Z,67.60
2018-04-08T04:17:40.111Z,68.40
2018-04-08T04:23:23.239Z,68.70
2018-04-08T04:26:02.584Z,68.80
2018-04-08T04:28:30.082Z,69.10
2018-04-08T04:30:58.331Z,69.40
2018-04-08T04:33:25.830Z,69.40
2018-04-08T04:35:54.115Z,69.70
2018-04-08T04:38:22.365Z,70.00
2018-04-08T04:40:49.921Z,70.00
2018-04-08T04:43:17.571Z,69.70
2018-04-08T04:45:45.075Z,69.90
2018-04-08T04:48:13.399Z,70.40
2018-04-08T04:50:40.891Z,70.30
2018-04-08T04:53:08.405Z,70.50
2018-04-08T04:55:36.733Z,70.20
2018-04-08T04:58:04.275Z,70.10
2018-04-08T05:00:31.796Z,70.20
2018-04-08T05:02:59.299Z,70.00
2018-04-08T05:05:26.790Z,70.00
2018-04-08T05:07:54.805Z,69.80
2018-04-08T05:10:23.058Z,69.80
2018-04-08T05:12:50.566Z,69.80
2018-04-08T05:15:18.070Z,69.70
2018-04-08T05:17:45.558Z,69.40
2018-04-08T05:20:14.551Z,69.20
2018-04-08T05:22:43.541Z,69.10
2018-04-08T05:25:11.843Z,69.00
2018-04-08T05:27:40.105Z,68.90
2018-04-08T05:30:08.374Z,68.90
2018-04-08T05:32:36.719Z,68.80
2018-04-08T05:35:04.232Z,68.60
2018-04-08T05:37:31.740Z,68.40
2018-04-08T05:39:59.225Z,68.10
2018-04-08T05:42:26.740Z,68.00
2018-04-08T05:44:55.020Z,67.80
2018-04-08T05:47:23.273Z,67.60
2018-04-08T05:49:50.799Z,67.60
2018-04-08T05:52:18.305Z,67.40
2018-04-08T05:54:45.813Z,67.20
2018-04-08T05:57:13.353Z,66.60
2018-04-08T05:59:41.625Z,64.80
2018-04-08T06:02:09.872Z,64.80
2018-04-08T06:04:37.409Z,64.00
2018-04-08T06:07:05.014Z,63.40
2018-04-08T06:09:32.511Z,62.60
2018-04-08T06:12:00.777Z,61.90
2018-04-08T06:14:28.677Z,61.30
2018-04-08T06:16:56.943Z,60.30
2018-04-08T06:19:25.209Z,60.40
2018-04-08T06:21:52.735Z,60.40
2018-04-08T06:24:20.244Z,60.00
2018-04-08T06:26:47.741Z,59.60
2018-04-08T06:29:15.224Z,59.30
2018-04-08T06:31:42.811Z,59.20
2018-04-08T06:34:11.725Z,59.00
2018-04-08T06:36:39.991Z,58.60
2018-04-08T06:39:08.380Z,58.80
2018-04-08T06:41:37.372Z,58.30
2018-04-08T06:44:06.395Z,57.60
2018-04-08T06:46:34.638Z,57.30
2018-04-08T06:49:02.218Z,57.20
2018-04-08T06:51:29.763Z,57.30
2018-04-08T06:53:57.282Z,57.30
2018-04-08T06:56:27.249Z,57.10
2018-04-08T06:58:54.749Z,57.10
2018-04-08T07:01:23.011Z,56.80
2018-04-08T07:03:51.276Z,56.80
2018-04-08T07:06:18.773Z,56.80
2018-04-08T07:08:47.693Z,56.30
2018-04-08T07:11:15.170Z,56.20
2018-04-08T07:13:42.675Z,56.20
2018-04-08T07:16:10.477Z,56.20
2018-04-08T07:18:38.741Z,56.10
2018-04-08T07:21:06.997Z,56.00
2018-04-08T07:23:34.501Z,56.00
2018-04-08T07:26:02.761Z,55.90
2018-04-08T07:28:30.248Z,55.90
2018-04-08T07:30:57.841Z,55.80
2018-04-08T07:33:25.355Z,55.80
2018-04-08T07:35:54.351Z,55.70
2018-04-08T07:38:22.614Z,55.50
2018-04-08T07:40:50.107Z,55.40
2018-04-08T07:43:18.379Z,55.50
2018-04-08T07:45:46.653Z,55.70
2018-04-08T07:48:14.154Z,55.50
2018-04-08T07:50:41.642Z,55.90
2018-04-08T07:53:09.206Z,55.60
2018-04-08T07:55:36.736Z,55.30
2018-04-08T07:58:04.331Z,55.70
2018-04-08T08:00:31.858Z,55.50
2018-04-08T08:03:00.196Z,55.60
2018-04-08T08:05:27.684Z,55.50
2018-04-08T08:07:55.924Z,55.60
2018-04-08T08:10:24.245Z,55.50
2018-04-08T08:12:52.494Z,55.70
2018-04-08T08:15:20.040Z,55.20
2018-04-08T08:17:47.537Z,55.70
2018-04-08T08:20:15.026Z,55.30
2018-04-08T08:22:43.273Z,54.80
2018-04-08T08:25:10.794Z,54.70
2018-04-08T08:27:38.289Z,55.60
2018-04-08T08:30:07.412Z,55.10
2018-04-08T08:32:35.920Z,54.20
2018-04-08T08:35:04.393Z,53.90
2018-04-08T08:37:32.436Z,53.80
2018-04-08T08:40:00.110Z,53.80
2018-04-08T08:42:28.423Z,53.90
2018-04-08T08:44:56.696Z,53.90
2018-04-08T08:47:25.007Z,53.90
2018-04-08T08:49:52.622Z,53.80
2018-04-08T08:52:20.932Z,54.60
2018-04-08T08:54:49.291Z,54.00
2018-04-08T08:57:16.745Z,54.00
2018-04-08T08:59:44.281Z,53.90
2018-04-08T09:02:11.813Z,54.10
2018-04-08T09:04:39.482Z,54.00
2018-04-08T09:07:07.037Z,54.00
2018-04-08T09:09:35.709Z,53.80
2018-04-08T09:12:03.290Z,53.80
2018-04-08T09:14:31.582Z,53.40
2018-04-08T09:16:59.119Z,53.40
2018-04-08T09:19:38.243Z,52.50
2018-04-08T09:22:06.520Z,52.50
2018-04-08T09:24:35.827Z,52.60
2018-04-08T09:27:03.390Z,52.40
2018-04-08T09:29:30.889Z,52.70
2018-04-08T09:31:58.500Z,52.80
2018-04-08T09:34:27.357Z,52.00
2018-04-08T09:36:54.874Z,51.80
2018-04-08T09:39:23.354Z,52.00
2018-04-08T09:41:50.985Z,51.50
2018-04-08T09:44:18.471Z,51.30
2018-04-08T09:46:45.963Z,51.30
2018-04-08T09:49:13.462Z,51.00
2018-04-08T09:51:41.004Z,50.50
2018-04-08T09:54:09.304Z,50.40
2018-04-08T09:56:36.781Z,50.40
2018-04-08T09:59:04.549Z,50.70
2018-04-08T10:04:32.743Z,50.00
2018-04-08T10:07:00.246Z,49.70
2018-04-08T10:09:27.775Z,49.80
2018-04-08T10:11:55.365Z,49.80
2018-04-08T10:14:22.937Z,49.80
2018-04-08T10:16:50.921Z,49.50
2018-04-08T10:19:19.202Z,49.40
2018-04-08T10:21:47.685Z,48.40
2018-04-08T10:24:17.569Z,48.80
2018-04-08T10:26:45.891Z,48.30
2018-04-08T10:29:15.306Z,48.20
2018-04-08T10:31:42.918Z,48.20
2018-04-08T10:34:10.689Z,48.50
2018-04-08T10:36:38.859Z,47.70
2018-04-08T10:39:06.555Z,47.80
2018-04-08T10:41:34.131Z,48.20
2018-04-08T10:44:01.617Z,48.40
2018-04-08T10:46:29.875Z,46.40
2018-04-08T10:48:58.085Z,46.30
2018-04-08T10:51:25.645Z,46.70
2018-04-08T10:53:53.964Z,46.20
2018-04-08T10:56:21.497Z,46.10
2018-04-08T10:58:49.143Z,45.90
2018-04-08T11:01:17.577Z,45.40
2018-04-08T11:03:45.074Z,45.40
2018-04-08T11:06:12.568Z,45.30
2018-04-08T11:08:40.935Z,45.40
2018-04-08T11:11:09.285Z,45.00
2018-04-08T11:13:36.987Z,45.00
2018-04-08T11:16:05.265Z,45.20
2018-04-08T11:18:33.517Z,44.80
2018-04-08T11:21:01.538Z,44.70
2018-04-08T11:23:29.029Z,44.30
2018-04-08T11:25:56.541Z,43.90
2018-04-08T11:28:24.827Z,43.30
2018-04-08T11:30:53.292Z,43.40
2018-04-08T11:33:20.797Z,43.30
2018-04-08T11:35:48.289Z,43.50
2018-04-08T11:38:16.633Z,43.20
2018-04-08T11:40:44.949Z,42.80
2018-04-08T11:43:12.574Z,42.80
2018-04-08T11:45:40.880Z,43.50
2018-04-08T11:48:08.411Z,43.40
2018-04-08T11:50:36.693Z,44.50
2018-04-08T11:53:04.963Z,44.60
2018-04-08T11:55:33.325Z,44.60
2018-04-08T11:58:01.461Z,44.50
2018-04-08T12:00:28.991Z,43.10
2018-04-08T12:02:57.255Z,42.60
2018-04-08T12:05:24.933Z,42.60
2018-04-08T12:07:53.208Z,42.50
2018-04-08T12:10:20.713Z,42.40
2018-04-08T12:12:48.190Z,42.60
2018-04-08T12:15:15.693Z,42.90
2018-04-08T12:17:43.197Z,40.90
2018-04-08T12:20:10.721Z,40.90
2018-04-08T12:22:38.218Z,40.80
2018-04-08T12:25:05.726Z,41.20
2018-04-08T12:27:33.238Z,41.30
2018-04-08T12:30:01.492Z,41.80
2018-04-08T12:32:28.971Z,41.80
2018-04-08T12:34:57.245Z,42.80
2018-04-08T12:37:25.545Z,41.90
2018-04-08T12:39:53.834Z,42.10
2018-04-08T12:42:21.313Z,42.10
2018-04-08T12:44:48.827Z,42.30
2018-04-08T12:47:17.094Z,42.70
2018-04-08T12:49:44.628Z,42.80
2018-04-08T12:52:12.108Z,42.60
2018-04-08T12:54:39.608Z,40.90
2018-04-08T12:57:07.951Z,40.60
2018-04-08T12:59:35.670Z,40.60
2018-04-08T13:02:03.951Z,41.40
2018-04-08T13:04:32.258Z,41.20
2018-04-08T13:06:59.734Z,41.10
2018-04-08T13:09:27.269Z,41.10
2018-04-08T13:11:54.773Z,41.10
2018-04-08T13:14:22.279Z,41.20
2018-04-08T13:16:50.580Z,41.20
2018-04-08T13:19:18.080Z,41.10
2018-04-08T13:21:45.625Z,41.70
2018-04-08T13:24:13.105Z,41.30
2018-04-08T13:26:40.593Z,41.10
2018-04-08T13:29:08.127Z,40.90
2018-04-08T13:31:35.607Z,41.00
2018-04-08T13:34:03.142Z,41.40
2018-04-08T13:36:31.411Z,40.60
2018-04-08T13:38:58.897Z,40.60
2018-04-08T13:41:26.405Z,40.90
2018-04-08T13:43:54.701Z,40.90
2018-04-08T13:46:22.269Z,40.80
2018-04-08T13:48:49.801Z,40.60
2018-04-08T13:51:17.365Z,40.40
2018-04-08T13:53:44.872Z,40.40
2018-04-08T13:56:12.751Z,40.00
2018-04-08T13:58:40.287Z,39.80
2018-04-08T14:01:08.544Z,40.00
2018-04-08T14:03:36.820Z,40.10
2018-04-08T14:06:04.337Z,40.00
2018-04-08T14:08:32.072Z,40.10
2018-04-08T14:11:00.335Z,39.90
2018-04-08T14:13:27.911Z,39.90
2018-04-08T14:15:55.489Z,40.10
2018-04-08T14:18:23.742Z,40.50
2018-04-08T14:20:51.263Z,40.50
2018-04-08T14:23:18.749Z,40.00
2018-04-08T14:25:46.246Z,39.60
2018-04-08T14:28:14.505Z,39.50
2018-04-08T14:30:42.191Z,39.50
2018-04-08T14:33:09.696Z,39.50
2018-04-08T14:35:38.200Z,40.00
2018-04-08T14:38:05.855Z,40.40
2018-04-08T14:40:33.369Z,40.50
2018-04-08T14:43:00.859Z,40.60
2018-04-08T14:45:28.352Z,40.80
2018-04-08T14:47:55.878Z,40.50
2018-04-08T14:50:24.770Z,41.00
2018-04-08T14:52:53.026Z,40.80
2018-04-08T14:55:20.577Z,40.70
2018-04-08T14:57:48.063Z,41.40
2018-04-08T15:00:16.378Z,39.90
2018-04-08T15:02:44.277Z,40.30
2018-04-08T15:05:11.795Z,41.00
2018-04-08T15:07:40.037Z,41.50
2018-04-08T15:10:10.707Z,41.50
2018-04-08T15:12:39.090Z,41.20
2018-04-08T15:15:06.595Z,41.30
2018-04-08T15:17:34.105Z,41.40
2018-04-08T15:20:02.385Z,40.90
2018-04-08T15:22:29.880Z,40.90
2018-04-08T15:24:57.392Z,40.70
2018-04-08T15:27:24.999Z,40.30
2018-04-08T15:29:52.497Z,40.50
2018-04-08T15:32:20.005Z,40.70
2018-04-08T15:34:48.286Z,41.30
2018-04-08T15:37:19.254Z,41.30
2018-04-08T15:39:46.833Z,41.50
2018-04-08T15:42:14.466Z,41.40
2018-04-08T15:44:42.743Z,41.70
2018-04-08T15:47:10.256Z,41.60
2018-04-08T15:49:37.802Z,41.90
2018-04-08T15:52:05.544Z,42.10
2018-04-08T15:54:33.851Z,41.70
2018-04-08T15:57:01.383Z,41.70
2018-04-08T15:59:29.645Z,42.50
2018-04-08T16:01:58.651Z,42.60
2018-04-08T16:04:26.136Z,42.50
2018-04-08T16:06:54.393Z,43.40
2018-04-08T16:09:21.889Z,43.40
2018-04-08T16:11:49.504Z,43.50
2018-04-08T16:14:17.125Z,43.90
2018-04-08T16:16:44.643Z,43.80
2018-04-08T16:19:12.918Z,43.70
2018-04-08T16:21:40.438Z,43.70
2018-04-08T16:24:07.940Z,43.70
2018-04-08T16:26:35.450Z,44.10
2018-04-08T16:29:02.978Z,44.40
2018-04-08T16:31:30.702Z,44.50
2018-04-08T16:33:58.233Z,44.20
2018-04-08T16:36:26.532Z,44.40
2018-04-08T16:38:54.054Z,44.40
2018-04-08T16:41:21.747Z,44.30
2018-04-08T16:43:50.007Z,45.70
2018-04-08T16:46:17.552Z,45.60
2018-04-08T16:48:45.075Z,46.10
2018-04-08T16:51:12.705Z,46.50
2018-04-08T16:53:40.232Z,46.70
2018-04-08T16:56:07.738Z,47.00
2018-04-08T16:58:36.009Z,47.60
2018-04-08T17:01:03.610Z,47.60
2018-04-08T17:03:31.141Z,48.50
2018-04-08T17:05:58.711Z,48.50
2018-04-08T17:08:26.222Z,49.30
2018-04-08T17:10:53.803Z,49.00
2018-04-08T17:13:21.329Z,49.20
2018-04-08T17:15:48.840Z,49.20
2018-04-08T17:18:16.379Z,49.40
2018-04-08T17:20:43.877Z,49.60
2018-04-08T17:23:11.453Z,49.70
2018-04-08T17:25:39.742Z,50.30
2018-04-08T17:28:08.041Z,50.50
2018-04-08T17:30:35.573Z,50.40
2018-04-08T17:33:03.072Z,50.90
2018-04-08T17:35:31.741Z,51.20
2018-04-08T17:38:00.345Z,51.60
2018-04-08T17:40:27.894Z,51.40
2018-04-08T17:42:56.189Z,52.10
2018-04-08T17:45:24.903Z,52.30
2018-04-08T17:47:53.511Z,52.80
2018-04-08T17:50:21.032Z,52.80
2018-04-08T17:52:49.341Z,53.40
2018-04-08T17:55:16.846Z,53.20
2018-04-08T17:57:45.851Z,53.90
2018-04-08T18:00:13.791Z,53.90
2018-04-08T18:02:42.145Z,54.30
2018-04-08T18:05:09.732Z,54.30
2018-04-08T18:07:37.233Z,54.60
2018-04-08T18:10:05.524Z,55.10
2018-04-08T18:12:34.346Z,55.40
2018-04-08T18:15:01.872Z,55.30
2018-04-08T18:17:30.204Z,55.70
2018-04-08T18:19:58.483Z,55.60
2018-04-08T18:22:26.069Z,56.00
2018-04-08T18:24:53.591Z,56.20
2018-04-08T18:27:21.495Z,56.50
2018-04-08T18:29:49.051Z,56.70
2018-04-08T18:32:16.797Z,56.70
2018-04-08T18:34:44.349Z,56.90
2018-04-08T18:37:12.637Z,57.00
2018-04-08T18:39:41.342Z,57.10
2018-04-08T18:42:08.860Z,57.10
2018-04-08T18:44:36.451Z,57.00
2018-04-08T18:47:04.723Z,57.10
2018-04-08T18:49:33.291Z,57.30
2018-04-08T18:52:00.794Z,57.30
2018-04-08T18:54:29.172Z,57.60
2018-04-08T18:56:57.469Z,57.80
2018-04-08T18:59:24.958Z,57.80
2018-04-08T19:01:53.264Z,57.80
2018-04-08T19:04:21.271Z,57.90
2018-04-08T19:06:48.871Z,58.00
2018-04-08T19:09:16.420Z,58.10
2018-04-08T19:11:44.049Z,58.20
2018-04-08T19:14:12.356Z,58.70
2018-04-08T19:16:39.912Z,58.70
2018-04-08T19:19:08.186Z,58.90
2018-04-08T19:21:36.488Z,58.90
2018-04-08T19:24:04.000Z,58.90
2018-04-08T19:26:33.048Z,59.00
2018-04-08T19:29:00.557Z,59.00
2018-04-08T19:31:28.271Z,59.10
2018-04-08T19:33:55.768Z,59.40
2018-04-08T19:36:23.308Z,59.40
2018-04-08T19:38:51.619Z,59.60
2018-04-08T19:41:20.128Z,59.70
2018-04-08T19:43:47.650Z,59.80
2018-04-08T19:46:15.165Z,60.00
2018-04-08T19:48:42.670Z,60.30
2018-04-08T19:51:10.224Z,60.80
2018-04-08T19:53:37.737Z,60.90
2018-04-08T19:56:05.292Z,61.00
2018-04-08T19:58:32.845Z,60.90
2018-04-08T20:01:00.398Z,61.00
2018-04-08T20:03:29.726Z,61.40
2018-04-08T20:05:57.246Z,61.40
2018-04-08T20:08:24.773Z,61.40
2018-04-08T20:10:52.404Z,61.30
2018-04-08T20:13:19.938Z,61.20
2018-04-08T20:15:47.965Z,61.40
2018-04-08T20:18:15.492Z,61.60
2018-04-08T20:20:43.058Z,61.80
2018-04-08T20:23:11.163Z,62.00
2018-04-08T20:25:38.668Z,62.20
2018-04-08T20:28:06.948Z,63.00
2018-04-08T20:30:35.275Z,63.00
2018-04-08T20:33:02.832Z,63.00
2018-04-08T20:35:30.363Z,63.30
2018-04-08T20:37:58.636Z,62.70
2018-04-08T20:40:26.933Z,62.80
2018-04-08T20:42:54.433Z,62.70
2018-04-08T20:45:21.925Z,63.00
2018-04-08T20:47:49.473Z,63.00
2018-04-08T20:50:16.964Z,63.20
2018-04-08T20:52:45.256Z,64.00
2018-04-08T20:55:14.010Z,64.20
2018-04-08T20:57:41.512Z,64.20
2018-04-08T21:00:09.768Z,64.40
2018-04-08T21:02:37.286Z,64.20
2018-04-08T21:05:04.979Z,64.50
2018-04-08T21:07:32.503Z,64.50
2018-04-08T21:10:00.117Z,64.70
2018-04-08T21:12:28.108Z,65.00
2018-04-08T21:14:56.384Z,65.60
2018-04-08T21:17:23.960Z,65.50
2018-04-08T21:19:52.218Z,65.90
2018-04-08T21:22:21.241Z,66.20
2018-04-08T21:24:49.510Z,66.60
2018-04-08T21:27:17.028Z,66.60
2018-04-08T21:29:44.597Z,66.50
2018-04-08T21:32:12.138Z,66.50
2018-04-08T21:34:39.677Z,66.70
2018-04-08T21:37:08.016Z,67.00
2018-04-08T21:39:35.585Z,67.00
2018-04-08T21:42:03.199Z,67.00
2018-04-08T21:44:31.462Z,67.40
2018-04-08T21:46:59.064Z,67.40
2018-04-08T21:49:26.613Z,67.60
2018-04-08T21:51:55.118Z,68.40
2018-04-08T21:54:23.133Z,67.80
2018-04-08T21:56:50.825Z,68.00
2018-04-08T21:59:19.242Z,68.20
2018-04-08T22:01:46.760Z,68.20
2018-04-08T22:04:15.155Z,68.30
2018-04-08T22:06:43.441Z,68.00
2018-04-08T22:09:12.192Z,68.10
2018-04-08T22:11:40.101Z,68.10
2018-04-08T22:14:08.368Z,68.70
2018-04-08T22:16:35.939Z,68.60
2018-04-08T22:19:04.286Z,68.30
2018-04-08T22:21:31.874Z,68.80
2018-04-08T22:23:59.409Z,68.80
2018-04-08T22:26:27.658Z,68.50
2018-04-08T22:28:55.170Z,68.50
2018-04-08T22:31:22.663Z,68.50
2018-04-08T22:33:50.951Z,68.60
2018-04-08T22:36:20.000Z,68.90
2018-04-08T22:38:47.508Z,68.90
2018-04-08T22:41:15.108Z,69.20
2018-04-08T22:43:42.622Z,69.30
2018-04-08T22:46:11.640Z,70.50
2018-04-08T22:48:39.900Z,70.10
2018-04-08T22:51:07.389Z,70.00
2018-04-08T22:53:35.640Z,70.50
2018-04-08T22:56:03.136Z,70.50
2018-04-08T22:58:30.645Z,70.20
2018-04-08T23:00:58.124Z,69.90
2018-04-08T23:03:26.016Z,69.80
2018-04-08T23:05:54.282Z,69.40
2018-04-08T23:08:23.327Z,69.30
2018-04-08T23:10:50.806Z,69.30
2018-04-08T23:13:18.312Z,69.50
2018-04-08T23:15:45.819Z,69.80
2018-04-08T23:18:13.686Z,69.80
2018-04-08T23:20:42.726Z,68.40
2018-04-08T23:23:10.228Z,68.40
2018-04-08T23:25:38.500Z,68.90
2018-04-08T23:28:06.896Z,69.00
2018-04-08T23:30:35.150Z,68.80
2018-04-08T23:33:02.667Z,68.70
2018-04-08T23:35:30.177Z,68.70
2018-04-08T23:37:57.691Z,68.90
2018-04-08T23:40:25.178Z,69.00
2018-04-08T23:42:52.675Z,69.60
2018-04-08T23:45:20.968Z,69.40
2018-04-08T23:47:49.236Z,69.80
2018-04-08T23:50:17.805Z,69.80
2018-04-08T23:52:45.303Z,70.20
2018-04-08T23:55:12.829Z,70.50
2018-04-08T23:57:40.349Z,71.00
